Webb, Iowa
Current Conditions -  °F | °C
As of 6:53 PM on Friday 24 Oct 2014 (Local Time) from KSPW Reporting Station
Clear Clear  
Wind Chill: 59°   Ceiling: Unl
Heat Index: 59°   Visibility: 10mi
Dew Point: 43°   Wind: 9mph
Humidity: 55%   Direction: 310°NW
Pressure: 29.93"   Gusts: NA
Location:  42.95°N, 95.01°W
Report Text: KSPW 242353Z AUTO 31008KT 10SM CLR 15/06 A2993 RMK AO2 SLP134 T01500061 10239 20144 53016 TSNO
Loading
Personal Weather Stations






























Interactive Weather Map
Tropical Storm Tracking
New forecast layout! Learn more

10-Day Weather Forecast

Advertisements
Track Severe Weather on mobile